Time;durP1;ratioP1;P1;durP2;ratioP2;P2;SDS_P1;SDS_P2;PMS_P1;PMS_P2;Temp;Humidity;BMP_temperature;BMP_pressure;BME280_temperature;BME280_humidity;BME280_pressure;Samples;Min_cycle;Max_cycle;Signal;HPM_P1;HPM_P2
2023/06/20 00:01:07;;;;;;;19.47;17.73;;;22.80;99.90;;;;;;5098109;28;20457;-67
2023/06/20 00:03:34;;;;;;;19.13;17.47;;;22.80;99.90;;;;;;5097659;28;20540;-67
2023/06/20 00:06:01;;;;;;;18.10;16.60;;;22.80;99.90;;;;;;5097673;28;20851;-67
2023/06/20 00:08:29;;;;;;;18.83;16.93;;;22.70;99.90;;;;;;5097849;28;20477;-67
2023/06/20 00:10:59;;;;;;;19.13;17.43;;;22.70;99.90;;;;;;5097873;28;20453;-67
2023/06/20 00:13:26;;;;;;;18.47;16.83;;;22.70;99.90;;;;;;5097268;28;20501;-67
2023/06/20 00:15:53;;;;;;;18.20;16.70;;;22.70;99.90;;;;;;5097842;28;20499;-67
2023/06/20 00:18:20;;;;;;;19.33;17.63;;;22.70;99.90;;;;;;5097311;28;20449;-67
2023/06/20 00:20:47;;;;;;;18.77;17.10;;;22.70;99.90;;;;;;5097670;28;20500;-67
2023/06/20 00:23:14;;;;;;;18.43;16.83;;;22.60;99.90;;;;;;5097795;28;20468;-67
2023/06/20 00:25:42;;;;;;;19.97;18.17;;;22.60;99.90;;;;;;5097591;28;20468;-67
2023/06/20 00:28:13;;;;;;;17.83;16.33;;;22.70;99.90;;;;;;5097606;28;20508;-67
2023/06/20 00:30:41;;;;;;;19.57;17.40;;;22.60;99.90;;;;;;5097689;28;20829;-67
2023/06/20 00:33:10;;;;;;;19.20;17.50;;;22.60;99.90;;;;;;5097295;28;20453;-67
2023/06/20 00:35:37;;;;;;;19.10;17.20;;;22.50;99.90;;;;;;5097480;28;20461;-67
2023/06/20 00:38:04;;;;;;;19.07;17.23;;;22.50;99.90;;;;;;5097859;28;20910;-67
2023/06/20 00:40:31;;;;;;;18.70;17.03;;;22.40;99.90;;;;;;5097284;28;20542;-67
2023/06/20 00:43:00;;;;;;;18.33;16.63;;;22.40;99.90;;;;;;5097207;28;20639;-67
2023/06/20 00:45:30;;;;;;;19.37;17.73;;;22.40;99.90;;;;;;5097623;28;20543;-67
2023/06/20 00:47:59;;;;;;;18.13;16.43;;;22.30;99.90;;;;;;5096997;28;21038;-67
2023/06/20 00:50:27;;;;;;;18.83;17.00;;;22.30;99.90;;;;;;5097581;28;20552;-67
2023/06/20 00:53:01;;;;;;;19.20;17.50;;;22.30;99.90;;;;;;5097149;28;20788;-67
2023/06/20 00:55:31;;;;;;;18.60;17.00;;;22.30;99.90;;;;;;5097167;28;20897;-67
2023/06/20 00:58:00;;;;;;;19.77;18.00;;;22.30;99.90;;;;;;5097411;28;20500;-67
2023/06/20 01:00:28;;;;;;;18.03;16.53;;;22.30;99.90;;;;;;5097557;28;20453;-67
2023/06/20 01:03:01;;;;;;;18.60;17.00;;;22.30;99.90;;;;;;5097575;28;20468;-67
2023/06/20 01:05:28;;;;;;;18.30;16.80;;;22.30;99.90;;;;;;5097295;28;20894;-67
2023/06/20 01:08:03;;;;;;;19.27;17.33;;;22.30;99.90;;;;;;5097684;28;20495;-67
2023/06/20 01:10:43;;;;;;;19.07;17.33;;;22.30;99.90;;;;;;5097565;28;20452;-67
2023/06/20 01:13:19;;;;;;;18.97;17.20;;;22.30;99.90;;;;;;5097982;28;20568;-67
2023/06/20 01:15:52;;;;;;;19.07;17.27;;;22.30;99.90;;;;;;5098432;28;20445;-67
2023/06/20 01:18:30;;;;;;;20.47;18.50;;;22.20;99.90;;;;;;5098775;28;20493;-67
2023/06/20 01:21:07;;;;;;;18.57;16.80;;;22.20;99.90;;;;;;5096962;28;20441;-67
2023/06/20 01:23:40;;;;;;;20.70;18.70;;;22.20;99.90;;;;;;5096743;28;20886;-67
2023/06/20 01:26:12;;;;;;;18.10;16.50;;;22.10;99.90;;;;;;5096530;28;20893;-67
2023/06/20 01:28:42;;;;;;;20.70;18.90;;;22.10;99.90;;;;;;5096461;28;20808;-67
2023/06/20 01:31:11;;;;;;;21.60;19.60;;;22.00;99.90;;;;;;5096113;28;20477;-67
2023/06/20 01:33:47;;;;;;;20.30;18.53;;;22.00;99.90;;;;;;5096366;28;20468;-67
2023/06/20 01:36:18;;;;;;;20.00;18.30;;;21.90;99.90;;;;;;5096066;28;20452;-67
2023/06/20 01:38:50;;;;;;;20.30;18.43;;;21.90;99.90;;;;;;5096450;28;20448;-68
2023/06/20 01:41:20;;;;;;;19.93;18.20;;;21.90;99.90;;;;;;5095737;28;20870;-67
2023/06/20 01:43:51;;;;;;;20.53;18.53;;;21.90;99.90;;;;;;5096153;28;20779;-67
2023/06/20 01:46:20;;;;;;;20.37;18.57;;;21.80;99.90;;;;;;5096565;28;20799;-67
2023/06/20 01:48:49;;;;;;;21.17;19.30;;;21.80;99.90;;;;;;5095946;28;20489;-67
2023/06/20 01:51:18;;;;;;;23.20;20.63;;;21.80;99.90;;;;;;5096206;28;20540;-67
2023/06/20 01:53:47;;;;;;;21.73;19.73;;;21.70;99.90;;;;;;5095764;28;20505;-67
2023/06/20 01:56:15;;;;;;;20.17;18.37;;;21.70;99.90;;;;;;5095568;28;20991;-67
2023/06/20 01:58:43;;;;;;;20.57;18.67;;;21.60;99.90;;;;;;5095611;28;20786;-67
2023/06/20 02:01:12;;;;;;;22.13;20.07;;;21.60;99.90;;;;;;5095659;28;20496;-68
2023/06/20 02:03:42;;;;;;;23.43;21.30;;;21.60;99.90;;;;;;5096436;28;20850;-66
2023/06/20 02:06:10;;;;;;;22.60;20.60;;;21.50;99.90;;;;;;5096303;28;20468;-66
2023/06/20 02:08:38;;;;;;;23.07;20.97;;;21.50;99.90;;;;;;5096398;28;20534;-67
2023/06/20 02:11:08;;;;;;;22.13;20.13;;;21.50;99.90;;;;;;5096075;28;20543;-67
2023/06/20 02:13:36;;;;;;;23.40;21.30;;;21.50;99.90;;;;;;5095669;28;20566;-67
2023/06/20 02:16:06;;;;;;;21.83;19.73;;;21.40;99.90;;;;;;5095361;28;20463;-67
2023/06/20 02:18:33;;;;;;;21.70;19.50;;;21.40;99.90;;;;;;5095454;28;20763;-67
2023/06/20 02:21:04;;;;;;;22.53;20.43;;;21.40;99.90;;;;;;5095525;28;20540;-67
2023/06/20 02:23:33;;;;;;;24.27;19.90;;;21.30;99.90;;;;;;5095633;28;20449;-67
2023/06/20 02:26:07;;;;;;;21.20;19.27;;;21.30;99.90;;;;;;5095573;28;20564;-67
2023/06/20 02:28:39;;;;;;;21.70;19.40;;;21.30;99.90;;;;;;5095334;28;20472;-67
2023/06/20 02:31:09;;;;;;;21.10;19.20;;;21.40;99.90;;;;;;5095779;28;20452;-67
2023/06/20 02:33:37;;;;;;;22.43;20.33;;;21.40;99.90;;;;;;5095749;28;20540;-67
2023/06/20 02:36:06;;;;;;;22.63;20.23;;;21.30;99.90;;;;;;5096190;28;20782;-67
2023/06/20 02:38:33;;;;;;;22.20;20.30;;;21.30;99.90;;;;;;5095359;28;20742;-68
2023/06/20 02:41:00;;;;;;;21.20;19.27;;;21.30;99.90;;;;;;5095415;28;20521;-68
2023/06/20 02:43:29;;;;;;;21.50;19.53;;;21.30;99.90;;;;;;5095834;28;20760;-67
2023/06/20 02:46:04;;;;;;;21.40;19.40;;;21.30;99.90;;;;;;5094852;28;20500;-67
2023/06/20 02:48:43;;;;;;;22.10;20.20;;;21.20;99.90;;;;;;5095425;28;20552;-67
2023/06/20 02:51:17;;;;;;;22.67;20.57;;;21.20;99.90;;;;;;5095293;28;20488;-67
2023/06/20 02:53:56;;;;;;;21.10;19.10;;;21.20;99.90;;;;;;5095571;28;20437;-67
2023/06/20 02:56:24;;;;;;;21.80;19.90;;;21.20;99.90;;;;;;5095129;28;20755;-67
2023/06/20 02:58:53;;;;;;;24.10;21.93;;;21.10;99.90;;;;;;5095088;28;20616;-67
2023/06/20 03:01:25;;;;;;;22.83;20.53;;;21.10;99.90;;;;;;5095212;28;20544;-67
2023/06/20 03:03:55;;;;;;;22.93;20.20;;;21.10;99.90;;;;;;5095280;28;20506;-67
2023/06/20 03:06:26;;;;;;;23.67;21.27;;;21.10;99.90;;;;;;5094845;28;20455;-67
2023/06/20 03:08:54;;;;;;;22.03;19.93;;;21.10;99.90;;;;;;5095212;28;20965;-67
2023/06/20 03:11:22;;;;;;;22.77;20.10;;;21.10;99.90;;;;;;5094666;28;20492;-67
2023/06/20 03:13:49;;;;;;;23.00;20.70;;;21.10;99.90;;;;;;5094957;28;20489;-67
2023/06/20 03:16:16;;;;;;;22.53;20.50;;;21.10;99.90;;;;;;5094734;28;20457;-67
2023/06/20 03:18:47;;;;;;;21.87;19.63;;;21.00;99.90;;;;;;5095376;28;20556;-67
2023/06/20 03:21:14;;;;;;;26.37;21.80;;;21.00;99.90;;;;;;5095135;28;20529;-67
2023/06/20 03:23:41;;;;;;;23.50;21.27;;;21.00;99.90;;;;;;5095430;28;20453;-67
2023/06/20 03:26:08;;;;;;;23.23;20.90;;;21.00;99.90;;;;;;5094950;28;20769;-67
2023/06/20 03:28:35;;;;;;;23.73;21.23;;;21.00;99.90;;;;;;5099113;28;20557;-67
2023/06/20 03:31:02;;;;;;;23.20;21.00;;;21.00;99.90;;;;;;5098393;28;20556;-67
2023/06/20 03:33:29;;;;;;;22.33;20.27;;;21.00;99.90;;;;;;5097934;28;20913;-67
2023/06/20 03:35:57;;;;;;;24.13;21.60;;;21.00;99.90;;;;;;5098104;28;20552;-67
2023/06/20 03:38:24;;;;;;;22.63;20.67;;;21.00;99.90;;;;;;5097817;28;20488;-67
2023/06/20 03:40:51;;;;;;;22.20;20.00;;;21.00;99.90;;;;;;5097630;28;20481;-67
2023/06/20 03:43:18;;;;;;;22.20;20.10;;;21.00;99.90;;;;;;5098242;28;20793;-67
2023/06/20 03:45:45;;;;;;;24.00;21.70;;;21.00;99.90;;;;;;5098436;28;20458;-67
2023/06/20 03:49:02;;;;;;;23.70;21.30;;;21.10;99.90;;;;;;5098011;28;20913;-67
2023/06/20 03:51:30;;;;;;;23.60;21.40;;;21.10;99.90;;;;;;5098467;28;20564;-67
2023/06/20 03:53:57;;;;;;;24.33;21.90;;;21.10;99.90;;;;;;5098151;28;20459;-67
2023/06/20 03:56:23;;;;;;;23.97;21.63;;;21.10;99.90;;;;;;5098410;28;20826;-67
2023/06/20 03:58:50;;;;;;;23.10;20.80;;;21.10;99.90;;;;;;5097885;28;20828;-67
2023/06/20 04:01:17;;;;;;;24.53;22.23;;;21.10;99.90;;;;;;5097786;28;20528;-67
2023/06/20 04:03:44;;;;;;;22.80;20.70;;;21.10;99.90;;;;;;5098188;28;20497;-67
2023/06/20 04:06:15;;;;;;;24.20;22.00;;;21.10;99.90;;;;;;5098171;28;20452;-67
2023/06/20 04:08:43;;;;;;;22.80;20.53;;;21.10;99.90;;;;;;5097615;28;20482;-67
2023/06/20 04:11:10;;;;;;;23.50;21.50;;;21.10;99.90;;;;;;5097760;28;20457;-67
2023/06/20 04:13:37;;;;;;;22.37;20.27;;;21.00;99.90;;;;;;5097592;28;20597;-67
2023/06/20 04:16:06;;;;;;;22.37;20.17;;;21.00;99.90;;;;;;5097802;28;20481;-67
2023/06/20 04:18:33;;;;;;;22.43;20.33;;;21.00;99.90;;;;;;5097971;28;20761;-67
2023/06/20 04:21:02;;;;;;;21.57;19.60;;;21.00;99.90;;;;;;5097569;28;20464;-67
2023/06/20 04:23:29;;;;;;;21.97;20.10;;;21.00;99.90;;;;;;5097591;28;20454;-67
2023/06/20 04:25:57;;;;;;;21.90;20.00;;;21.00;99.90;;;;;;5097877;28;20540;-67
2023/06/20 04:28:24;;;;;;;23.30;20.80;;;21.00;99.90;;;;;;5097686;28;20449;-66
2023/06/20 04:30:52;;;;;;;22.73;20.73;;;21.00;99.90;;;;;;5097999;28;20873;-67
2023/06/20 04:33:20;;;;;;;23.53;21.33;;;21.00;99.90;;;;;;5097839;28;20457;-67
2023/06/20 04:35:47;;;;;;;23.70;21.23;;;21.00;99.90;;;;;;5097472;28;20450;-67
2023/06/20 04:38:13;;;;;;;23.17;20.97;;;21.00;99.90;;;;;;5096281;28;20552;-67
2023/06/20 04:40:41;;;;;;;23.53;21.30;;;21.00;99.90;;;;;;5097496;28;20465;-67
2023/06/20 04:43:12;;;;;;;23.10;20.97;;;21.00;99.90;;;;;;5097385;28;20457;-67
2023/06/20 04:45:39;;;;;;;23.37;21.07;;;21.00;99.90;;;;;;5096923;28;21009;-66
2023/06/20 04:48:06;;;;;;;22.47;20.37;;;21.10;99.90;;;;;;5096910;28;20465;-67
2023/06/20 04:50:33;;;;;;;23.43;21.30;;;21.10;99.90;;;;;;5096800;28;20483;-67
2023/06/20 04:53:00;;;;;;;22.10;20.13;;;21.20;99.90;;;;;;5097231;28;20547;-67
2023/06/20 04:55:27;;;;;;;25.23;23.03;;;21.20;99.90;;;;;;5097169;28;20457;-67
2023/06/20 04:57:56;;;;;;;52.00;46.40;;;21.30;99.90;;;;;;5097335;28;20457;-67
2023/06/20 05:00:26;;;;;;;28.77;26.13;;;21.30;99.90;;;;;;5096988;28;20465;-67
2023/06/20 05:02:53;;;;;;;23.90;21.60;;;21.40;99.90;;;;;;5097313;28;20442;-67
2023/06/20 05:05:20;;;;;;;24.67;22.17;;;21.50;99.90;;;;;;5096698;28;20461;-67
2023/06/20 05:07:47;;;;;;;24.13;21.93;;;21.50;99.90;;;;;;5096512;28;20453;-67
2023/06/20 05:10:14;;;;;;;23.77;21.67;;;21.50;99.90;;;;;;5096620;28;20503;-67
2023/06/20 05:12:41;;;;;;;23.47;21.17;;;21.50;99.90;;;;;;5096385;28;20577;-67
2023/06/20 05:15:09;;;;;;;24.27;22.07;;;21.50;99.90;;;;;;5096437;28;20552;-67
2023/06/20 05:17:37;;;;;;;22.93;20.90;;;21.50;99.90;;;;;;5096385;28;20925;-67
2023/06/20 05:20:05;;;;;;;24.10;21.90;;;21.60;99.90;;;;;;5096618;28;20449;-67
2023/06/20 05:22:32;;;;;;;23.63;21.60;;;21.60;99.90;;;;;;5096294;28;20524;-67
2023/06/20 05:24:59;;;;;;;25.20;22.50;;;21.60;99.90;;;;;;5096635;28;20851;-67
2023/06/20 05:27:26;;;;;;;23.57;21.10;;;21.70;99.90;;;;;;5096656;28;20933;-69
2023/06/20 05:29:53;;;;;;;24.53;22.33;;;21.70;99.90;;;;;;5096450;28;20491;-69
2023/06/20 05:32:20;;;;;;;23.67;21.60;;;21.70;99.90;;;;;;5096633;28;20465;-66
2023/06/20 05:34:48;;;;;;;25.30;23.10;;;21.70;99.90;;;;;;5096311;28;20793;-66
2023/06/20 05:37:16;;;;;;;25.57;23.00;;;21.70;99.90;;;;;;5096667;28;20543;-67
2023/06/20 05:39:43;;;;;;;24.43;22.13;;;21.70;99.90;;;;;;5095990;28;20449;-66
2023/06/20 05:42:10;;;;;;;26.50;23.80;;;21.70;99.90;;;;;;5096070;28;20459;-68
2023/06/20 05:44:39;;;;;;;24.33;22.13;;;21.80;99.90;;;;;;5096067;28;20528;-68
2023/06/20 05:47:06;;;;;;;26.50;23.90;;;21.80;99.90;;;;;;5095956;28;20518;-68
2023/06/20 05:49:33;;;;;;;24.13;22.03;;;21.80;99.90;;;;;;5095515;28;20564;-68
2023/06/20 05:52:05;;;;;;;24.27;21.87;;;21.90;99.90;;;;;;5095449;28;20464;-68
2023/06/20 05:54:32;;;;;;;24.20;21.97;;;21.90;99.90;;;;;;5095656;28;20492;-68
2023/06/20 05:56:59;;;;;;;24.33;22.00;;;22.00;99.90;;;;;;5095606;28;20928;-68
2023/06/20 05:59:29;;;;;;;24.60;22.30;;;22.00;99.90;;;;;;5095717;28;20517;-68
2023/06/20 06:01:55;;;;;;;24.73;22.30;;;22.10;99.90;;;;;;5095215;28;20552;-68
2023/06/20 06:04:22;;;;;;;25.20;22.80;;;22.10;99.90;;;;;;5095035;28;20453;-68
2023/06/20 06:06:49;;;;;;;25.47;22.90;;;22.10;99.90;;;;;;5095700;28;20457;-68
2023/06/20 06:09:17;;;;;;;24.63;22.27;;;22.10;99.90;;;;;;5095658;28;20467;-68
2023/06/20 06:11:45;;;;;;;26.60;24.10;;;22.20;99.90;;;;;;5095070;28;20519;-68
2023/06/20 06:14:12;;;;;;;26.87;24.47;;;22.20;99.90;;;;;;5095175;28;20441;-68
2023/06/20 06:16:39;;;;;;;25.20;22.83;;;22.20;99.90;;;;;;5095648;28;20512;-68
2023/06/20 06:19:06;;;;;;;27.00;24.60;;;22.20;99.90;;;;;;5095643;28;20457;-68
2023/06/20 06:21:33;;;;;;;27.50;25.00;;;22.20;99.90;;;;;;5095322;28;20993;-68
2023/06/20 06:24:00;;;;;;;26.57;23.87;;;22.20;99.90;;;;;;5095095;28;20560;-67
2023/06/20 06:26:28;;;;;;;27.37;24.60;;;22.20;99.90;;;;;;5095073;28;20640;-68
2023/06/20 06:28:55;;;;;;;25.77;23.37;;;22.30;99.90;;;;;;5095553;28;20823;-68
2023/06/20 06:31:27;;;;;;;24.93;22.40;;;22.30;99.90;;;;;;5095136;28;20579;-67
2023/06/20 06:33:56;;;;;;;25.33;22.80;;;22.40;99.90;;;;;;5095096;28;20442;-68
2023/06/20 06:36:24;;;;;;;25.63;23.43;;;22.50;99.90;;;;;;5095580;28;20465;-68
2023/06/20 06:38:51;;;;;;;22.07;19.97;;;22.60;99.90;;;;;;5095235;28;20453;-68
2023/06/20 06:41:18;;;;;;;25.23;22.90;;;22.70;99.90;;;;;;5095324;28;20449;-68
2023/06/20 06:43:47;;;;;;;30.67;27.50;;;22.90;99.90;;;;;;5095269;28;20468;-68
2023/06/20 06:46:14;;;;;;;26.57;23.67;;;23.00;99.90;;;;;;5094919;28;20944;-68
2023/06/20 06:48:41;;;;;;;29.83;26.53;;;23.10;99.90;;;;;;5094975;28;20461;-68
2023/06/20 06:51:08;;;;;;;28.33;25.93;;;23.20;99.90;;;;;;5095138;28;20509;-68
2023/06/20 06:53:38;;;;;;;28.97;26.30;;;23.30;99.90;;;;;;5095031;28;20453;-68
2023/06/20 06:56:05;;;;;;;44.50;39.77;;;23.30;99.90;;;;;;5095116;28;20484;-68
2023/06/20 06:58:32;;;;;;;29.03;26.30;;;23.50;99.90;;;;;;5094929;28;20556;-68
2023/06/20 07:01:00;;;;;;;29.03;26.40;;;23.40;99.90;;;;;;5094852;28;20463;-68
2023/06/20 07:03:27;;;;;;;29.20;26.60;;;23.50;99.90;;;;;;5098604;28;20462;-68
2023/06/20 07:05:54;;;;;;;26.70;24.20;;;23.50;99.90;;;;;;5098985;28;20495;-68
2023/06/20 07:08:22;;;;;;;28.37;25.77;;;23.60;99.90;;;;;;5098119;28;20453;-68
2023/06/20 07:10:51;;;;;;;27.33;24.83;;;23.60;99.90;;;;;;5098855;28;20504;-67
2023/06/20 07:13:18;;;;;;;27.67;25.17;;;23.70;99.90;;;;;;5098773;28;20487;-67
2023/06/20 07:15:45;;;;;;;27.47;24.97;;;23.70;99.90;;;;;;5098349;28;20548;-67
2023/06/20 07:18:13;;;;;;;27.80;25.23;;;23.80;99.90;;;;;;5098184;28;20457;-67
2023/06/20 07:20:40;;;;;;;27.00;24.43;;;23.90;99.90;;;;;;5098264;28;20564;-68
2023/06/20 07:23:06;;;;;;;25.77;23.57;;;24.00;99.90;;;;;;5098210;28;20461;-67
2023/06/20 07:25:33;;;;;;;27.20;24.70;;;24.10;99.90;;;;;;5098073;28;20457;-67
2023/06/20 07:28:00;;;;;;;26.90;24.50;;;24.20;99.90;;;;;;5098429;28;20453;-67
2023/06/20 07:30:27;;;;;;;29.23;26.53;;;24.30;99.90;;;;;;5098071;28;20560;-67
2023/06/20 07:32:54;;;;;;;25.50;23.30;;;24.40;99.90;;;;;;5097743;28;20485;-67
2023/06/20 07:35:22;;;;;;;28.20;25.80;;;24.50;99.90;;;;;;5098235;28;20531;-67
2023/06/20 07:37:49;;;;;;;28.67;26.00;;;24.60;99.90;;;;;;5098379;28;20544;-67
2023/06/20 07:40:16;;;;;;;29.47;26.87;;;24.70;99.90;;;;;;5097605;28;20921;-67
2023/06/20 07:42:43;;;;;;;27.30;24.70;;;24.80;99.90;;;;;;5097807;28;20539;-67
2023/06/20 07:45:10;;;;;;;27.80;25.27;;;24.80;99.90;;;;;;5097847;28;20493;-67
2023/06/20 07:47:37;;;;;;;27.37;24.93;;;24.90;99.90;;;;;;5097637;28;20541;-67
2023/06/20 07:50:04;;;;;;;27.90;25.03;;;25.00;99.90;;;;;;5097702;28;20477;-67
2023/06/20 07:52:33;;;;;;;26.30;24.00;;;25.00;99.90;;;;;;5098057;28;20532;-67
2023/06/20 07:55:01;;;;;;;26.80;24.27;;;25.00;99.90;;;;;;5097533;28;20464;-67
2023/06/20 07:57:28;;;;;;;27.90;25.07;;;25.10;99.90;;;;;;5097618;28;20453;-67
2023/06/20 07:59:54;;;;;;;27.83;25.23;;;25.10;99.90;;;;;;5097881;28;20549;-68
2023/06/20 08:02:21;;;;;;;26.40;24.00;;;25.20;99.90;;;;;;5097797;28;20469;-67
2023/06/20 08:04:48;;;;;;;27.03;23.73;;;25.30;99.90;;;;;;5098101;28;20453;-67
2023/06/20 08:07:15;;;;;;;27.30;24.77;;;25.40;99.90;;;;;;5097474;28;20484;-67
2023/06/20 08:09:46;;;;;;;23.93;21.93;;;25.50;99.90;;;;;;5097620;28;20467;-67
2023/06/20 08:12:13;;;;;;;30.57;27.67;;;25.60;99.90;;;;;;5097139;28;21064;-67
2023/06/20 08:14:40;;;;;;;27.30;24.47;;;25.60;99.90;;;;;;5097449;28;20457;-67
2023/06/20 08:17:07;;;;;;;26.53;23.87;;;25.70;99.90;;;;;;5097273;28;20483;-68
2023/06/20 08:19:34;;;;;;;28.83;26.27;;;25.80;99.90;;;;;;5097058;28;20544;-67
2023/06/20 08:22:01;;;;;;;27.17;24.60;;;25.80;99.90;;;;;;5097020;28;20915;-67
2023/06/20 08:24:28;;;;;;;27.07;24.60;;;25.80;99.90;;;;;;5096585;28;20548;-67
2023/06/20 08:26:56;;;;;;;28.77;23.83;;;25.90;99.90;;;;;;5097138;28;20453;-67
2023/06/20 08:29:23;;;;;;;24.63;22.13;;;25.90;99.90;;;;;;5096703;28;20556;-67
2023/06/20 08:31:50;;;;;;;26.20;23.90;;;25.90;99.90;;;;;;5096814;28;20839;-67
2023/06/20 08:34:16;;;;;;;27.63;24.90;;;25.90;99.90;;;;;;5096607;28;20778;-67
2023/06/20 08:36:44;;;;;;;25.73;23.30;;;25.90;99.90;;;;;;5096549;28;20812;-67
2023/06/20 08:39:12;;;;;;;25.00;22.77;;;25.90;99.90;;;;;;5096618;28;20456;-67
2023/06/20 08:41:39;;;;;;;28.10;25.40;;;25.90;99.90;;;;;;5096511;28;20727;-67
2023/06/20 08:44:08;;;;;;;25.77;23.20;;;25.90;99.90;;;;;;5096277;28;20463;-67
2023/06/20 08:46:35;;;;;;;25.73;23.57;;;25.90;99.90;;;;;;5096307;28;20831;-67
2023/06/20 08:49:03;;;;;;;26.80;24.20;;;25.90;99.90;;;;;;5096147;28;20453;-67
2023/06/20 08:51:32;;;;;;;27.43;24.83;;;26.00;99.90;;;;;;5096311;28;20481;-67
2023/06/20 08:54:01;;;;;;;26.97;24.57;;;26.00;99.90;;;;;;5096454;28;20765;-67
2023/06/20 08:56:28;;;;;;;25.90;23.50;;;26.00;99.90;;;;;;5096488;28;20457;-67
2023/06/20 08:58:55;;;;;;;27.80;24.30;;;26.00;99.90;;;;;;5096273;28;20560;-67
2023/06/20 09:01:23;;;;;;;24.70;22.60;;;26.00;99.90;;;;;;5095954;28;20456;-67
2023/06/20 09:03:55;;;;;;;27.87;24.77;;;26.00;99.90;;;;;;5096005;28;20518;-67
2023/06/20 09:06:33;;;;;;;24.87;22.53;;;26.00;99.90;;;;;;5096162;28;20541;-67
2023/06/20 09:09:00;;;;;;;26.00;23.30;;;26.00;99.90;;;;;;5096380;28;20437;-67
2023/06/20 09:11:27;;;;;;;27.50;24.70;;;26.00;99.90;;;;;;5095706;28;20609;-67
2023/06/20 09:13:53;;;;;;;26.40;23.70;;;25.90;99.90;;;;;;5095912;28;20459;-67
2023/06/20 09:16:23;;;;;;;27.07;24.57;;;25.80;99.90;;;;;;5095603;28;20828;-67
2023/06/20 09:18:52;;;;;;;27.83;23.77;;;25.60;99.90;;;;;;5095685;28;20578;-67
2023/06/20 09:21:21;;;;;;;27.57;25.00;;;25.50;99.90;;;;;;5095340;28;20918;-67
2023/06/20 09:23:48;;;;;;;28.63;25.63;;;25.30;99.90;;;;;;5095633;28;20532;-67
2023/06/20 09:26:16;;;;;;;28.03;25.27;;;25.00;99.90;;;;;;5095222;28;20489;-67
2023/06/20 09:28:43;;;;;;;28.70;26.10;;;24.70;99.90;;;;;;5095617;28;20544;-67
2023/06/20 09:31:10;;;;;;;27.83;24.83;;;24.50;99.90;;;;;;5095408;28;20860;-67
2023/06/20 09:33:38;;;;;;;26.50;23.93;;;24.30;99.90;;;;;;5095622;28;20532;-66
2023/06/20 09:36:16;;;;;;;26.07;23.77;;;24.10;99.90;;;;;;5096126;28;20526;-67
2023/06/20 09:38:44;;;;;;;26.00;23.80;;;23.80;99.90;;;;;;5095300;28;20453;-67
2023/06/20 09:41:15;;;;;;;29.47;25.27;;;23.50;99.90;;;;;;5095539;28;20463;-67
2023/06/20 09:43:42;;;;;;;27.63;24.83;;;23.20;99.90;;;;;;5096020;28;20775;-66
2023/06/20 09:46:09;;;;;;;28.13;24.93;;;23.00;99.90;;;;;;5095533;28;20784;-67
2023/06/20 09:48:37;;;;;;;29.37;26.80;;;22.70;99.90;;;;;;5095573;28;20783;-66
2023/06/20 09:51:08;;;;;;;29.07;26.27;;;22.60;99.90;;;;;;5095200;28;20535;-67
2023/06/20 09:53:47;;;;;;;31.63;28.43;;;22.40;99.90;;;;;;5095386;28;20548;-68
2023/06/20 09:56:16;;;;;;;36.37;32.60;;;21.80;99.90;;;;;;5095581;28;20528;-68
2023/06/20 09:58:45;;;;;;;40.70;36.60;;;20.80;99.90;;;;;;5095412;28;20544;-67
2023/06/20 10:01:14;;;;;;;43.30;38.90;;;20.30;99.90;;;;;;5094982;28;20461;-67
2023/06/20 10:03:42;;;;;;;42.53;38.30;;;20.00;99.90;;;;;;5094820;28;20464;-68
2023/06/20 10:06:10;;;;;;;45.60;40.97;;;19.90;99.90;;;;;;5095081;28;20489;-67
2023/06/20 10:08:40;;;;;;;47.97;43.07;;;19.90;99.90;;;;;;5095120;28;20457;-67
2023/06/20 10:11:07;;;;;;;47.87;42.73;;;19.80;99.90;;;;;;5094920;28;20791;-68
2023/06/20 10:13:35;;;;;;;46.80;42.00;;;19.80;99.90;;;;;;5094239;28;20576;-68
2023/06/20 10:16:03;;;;;;;48.70;43.67;;;19.80;99.90;;;;;;5094921;28;21028;-68
2023/06/20 10:18:38;;;;;;;52.70;45.27;;;19.80;99.90;;;;;;5095099;28;20789;-68
2023/06/20 10:21:14;;;;;;;49.63;43.90;;;19.80;99.90;;;;;;5094960;28;20937;-68
2023/06/20 10:23:44;;;;;;;50.83;45.40;;;19.80;99.90;;;;;;5094970;28;20463;-68
2023/06/20 10:26:12;;;;;;;52.97;47.47;;;19.80;99.90;;;;;;5094964;28;20544;-68
2023/06/20 10:28:40;;;;;;;59.20;52.83;;;19.80;99.90;;;;;;5095179;28;20463;-68
2023/06/20 10:31:07;;;;;;;60.70;52.20;;;19.80;99.90;;;;;;5095584;28;20568;-68
2023/06/20 10:33:34;;;;;;;58.30;51.93;;;19.80;99.90;;;;;;5095364;28;20799;-68
2023/06/20 10:36:06;;;;;;;61.30;53.50;;;19.80;99.90;;;;;;5095396;28;20464;-68
2023/06/20 10:38:38;;;;;;;59.53;51.73;;;19.80;99.90;;;;;;5098608;28;20453;-68
2023/06/20 10:41:12;;;;;;;69.63;54.70;;;19.80;99.90;;;;;;5099001;28;20434;-68
2023/06/20 10:44:04;;;;;;;70.80;54.60;;;19.80;99.90;;;;;;5098687;28;20489;-68
2023/06/20 10:46:46;;;;;;;72.57;57.70;;;19.90;99.90;;;;;;5085599;28;20537;-69
2023/06/20 10:49:13;;;;;;;69.43;56.40;;;19.90;99.90;;;;;;5098762;28;20510;-69
2023/06/20 10:51:44;;;;;;;68.77;55.53;;;19.90;99.90;;;;;;5098932;28;20564;-69
2023/06/20 10:54:11;;;;;;;72.40;54.07;;;20.00;99.90;;;;;;5098489;28;20484;-67
2023/06/20 10:56:39;;;;;;;71.90;57.40;;;20.00;99.90;;;;;;5098409;28;20540;-67
2023/06/20 10:59:12;;;;;;;69.00;56.70;;;20.00;99.90;;;;;;5098331;28;20453;-67
2023/06/20 11:01:39;;;;;;;78.83;61.80;;;20.00;99.90;;;;;;5098163;28;20437;-67
2023/06/20 11:04:07;;;;;;;79.90;61.23;;;20.00;99.90;;;;;;5098677;28;20453;-67
2023/06/20 11:06:34;;;;;;;81.10;60.67;;;20.10;99.90;;;;;;5098110;28;20544;-67
2023/06/20 11:09:01;;;;;;;111.97;76.60;;;20.10;99.90;;;;;;5098073;28;20464;-67
2023/06/20 11:11:32;;;;;;;69.80;57.00;;;20.10;99.90;;;;;;5097975;28;20480;-68
2023/06/20 11:14:11;;;;;;;73.80;58.97;;;20.10;99.90;;;;;;5098435;28;20778;-69
2023/06/20 11:16:39;;;;;;;79.67;60.57;;;20.10;99.90;;;;;;5098377;28;20441;-69
2023/06/20 11:19:05;;;;;;;79.97;61.07;;;20.20;99.90;;;;;;5098728;28;20467;-69
2023/06/20 11:21:32;;;;;;;77.50;58.57;;;20.20;99.90;;;;;;5098984;28;20552;-69
2023/06/20 11:23:59;;;;;;;78.17;60.63;;;20.20;99.90;;;;;;5098453;28;20457;-69
2023/06/20 11:26:29;;;;;;;90.30;63.40;;;20.30;99.90;;;;;;5098489;28;20453;-69
2023/06/20 11:28:59;;;;;;;95.43;70.43;;;20.30;99.90;;;;;;5098254;28;20453;-69
2023/06/20 11:31:27;;;;;;;79.90;62.77;;;20.30;99.90;;;;;;5097831;28;20492;-68
2023/06/20 11:34:05;;;;;;;83.27;64.33;;;20.30;99.90;;;;;;5097286;28;20471;-68
2023/06/20 11:36:33;;;;;;;82.13;63.73;;;20.40;99.90;;;;;;5101907;28;20447;-71
2023/06/20 11:39:00;;;;;;;87.03;64.90;;;20.40;99.90;;;;;;5103166;28;20794;-71
2023/06/20 11:41:31;;;;;;;90.70;65.70;;;20.50;99.90;;;;;;5102812;28;20532;-71
2023/06/20 11:43:58;;;;;;;84.57;62.57;;;20.50;99.90;;;;;;5102956;28;20452;-71
2023/06/20 11:46:27;;;;;;;84.00;65.57;;;20.60;99.90;;;;;;5103020;28;20607;-71
2023/06/20 11:48:56;;;;;;;146.37;115.63;;;20.60;99.90;;;;;;5100762;28;20500;-70
2023/06/20 11:51:25;;;;;;;86.13;66.30;;;20.60;99.90;;;;;;5100779;28;20569;-71
2023/06/20 11:54:01;;;;;;;81.87;63.50;;;20.70;99.90;;;;;;5101226;28;20517;-71
2023/06/20 11:56:28;;;;;;;86.23;65.77;;;20.70;99.90;;;;;;5100801;28;20528;-71
2023/06/20 11:58:55;;;;;;;83.63;63.17;;;20.80;99.90;;;;;;5103541;28;20548;-71
2023/06/20 12:01:24;;;;;;;85.93;65.57;;;21.00;99.90;;;;;;5102720;28;20516;-71
2023/06/20 12:04:05;;;;;;;77.87;61.30;;;21.10;99.90;;;;;;5101782;28;20484;-71
2023/06/20 12:06:34;;;;;;;81.00;64.40;;;21.30;99.90;;;;;;5102917;28;20455;-71
2023/06/20 12:09:08;;;;;;;92.63;67.50;;;21.30;99.90;;;;;;5101307;28;20548;-71
2023/06/20 12:11:36;;;;;;;74.43;60.50;;;21.40;99.90;;;;;;5101097;28;20913;-71
2023/06/20 12:14:03;;;;;;;97.73;72.93;;;21.50;99.90;;;;;;5101540;28;20761;-71
2023/06/20 12:16:31;;;;;;;71.23;58.17;;;21.50;99.90;;;;;;5100993;28;20882;-71
2023/06/20 12:19:01;;;;;;;70.40;61.10;;;21.60;99.90;;;;;;5103287;28;20461;-71
2023/06/20 12:21:29;;;;;;;75.20;64.00;;;21.70;99.90;;;;;;5102600;28;20446;-71
2023/06/20 12:23:56;;;;;;;64.90;57.40;;;21.90;99.90;;;;;;5102963;28;20479;-71
2023/06/20 12:26:23;;;;;;;61.33;52.67;;;22.00;99.90;;;;;;5102566;28;20967;-71
2023/06/20 12:28:50;;;;;;;57.10;51.20;;;22.10;99.90;;;;;;5103086;28;20557;-71
2023/06/20 12:31:17;;;;;;;53.00;47.83;;;22.20;99.90;;;;;;5104344;28;20560;-71
2023/06/20 12:33:44;;;;;;;50.17;45.33;;;22.30;99.90;;;;;;5103731;28;20531;-71